Seaspan Chiwan — VRBH3 — position and weather

sailwx.info

Track history (hours):
 
Tides and Currents Weather Stations Pressure Air Temp Water Temp Dewpoint Dewpoint Depression Visibility Wind Speed Wind Dir Waves Ship Positions

Seaspan Chiwan

Last reported at 2014-Oct-01 15:33 UTC. Time now 2014-Oct-01 16:23 UTC.
Position N 38°32' W 124°03'.

Length 260 m; draft 10 m.

Type: Cargo ship. MMSI: 477014500.

Date/timePositionNaut miles runAvg speedWind from/ knotsBaromVisibWave heightAir tempDewpointWater temp
2014-Oct-01 15:33N 38°32' W 124°03'1414.1
2014-Oct-01 14:33N 38°42' W 124°16'1413.5
2014-Oct-01 13:33N 38°55' W 124°24'1414.1
2014-Oct-01 12:33N 39°08' W 124°30'1414.3
2014-Oct-01 11:33N 39°21' W 124°36'1414.4
2014-Oct-01 10:33N 39°35' W 124°42'38816.1
2014-Sep-30 10:25N 46°03' W 124°13'1213.7
2014-Sep-30 09:33N 46°14' W 124°07'1211.6
2014-Sep-30 08:33N 46°12' W 123°51'1010.5
2014-Sep-30 07:33N 46°15' W 123°37'51 9.9
2014-Sep-30 02:23N 45°39' W 122°45'0 0.2
2014-Sep-30 00:31N 45°38' W 122°45'0 0.0
2014-Sep-29 14:31N 45°38' W 122°45'0 0.0
2014-Sep-29 13:31N 45°38' W 122°45'2 1.6
2014-Sep-29 12:33N 45°40' W 122°46'46 9.2
2014-Sep-29 07:34N 46°16' W 123°28'10 9.8
2014-Sep-29 06:33N 46°15' W 123°42'9 9.6
2014-Sep-29 05:34N 46°11' W 123°55'1111.3
2014-Sep-29 04:33N 46°13' W 124°11'1110.9
2014-Sep-29 03:33N 46°20' W 124°23'10119.5
2014-Sep-28 22:21N 47°55' W 125°16'1719.5
2014-Sep-28 21:30N 48°11' W 125°12'1919.7
2014-Sep-28 20:33N 48°29' W 125°04'1919.0
2014-Sep-28 19:34N 48°28' W 124°35'2020.3
2014-Sep-28 18:34N 48°21' W 124°07'2120.3
2014-Sep-28 17:33N 48°15' W 123°37'1515.0
2014-Sep-28 16:33N 48°23' W 123°18'1616.3
2014-Sep-28 15:33N 48°39' W 123°15'1414.0
2014-Sep-28 14:33N 48°51' W 123°05'1717.5
2014-Sep-28 13:33N 49°05' W 123°20'1010.4
2014-Sep-28 12:33N 49°07' W 123°05'7 7.2
2014-Sep-28 11:31N 49°11' W 122°55'0 0.0
2014-Sep-28 10:31N 49°11' W 122°55'0 0.0
2014-Sep-28 09:31N 49°11' W 122°55'0 0.0
2014-Sep-28 08:31N 49°11' W 122°55'0 0.0
2014-Sep-28 07:31N 49°11' W 122°55'0 0.0
2014-Sep-28 06:31N 49°11' W 122°55'0 0.0
2014-Sep-28 05:31N 49°11' W 122°55'0 0.0
2014-Sep-28 04:31N 49°11' W 122°55'0 0.0
2014-Sep-28 03:31N 49°11' W 122°55'0 0.0
2014-Sep-28 02:31N 49°11' W 122°55'0 0.0
2014-Sep-28 01:31N 49°11' W 122°55'0 0.0
2014-Sep-28 00:28N 49°11' W 122°55'0 0.0
2014-Sep-27 23:31N 49°11' W 122°55'0 0.0
2014-Sep-27 22:28N 49°11' W 122°55'0 0.0
2014-Sep-27 21:31N 49°11' W 122°55'0 0.0
2014-Sep-27 20:31N 49°11' W 122°55'0 0.0
2014-Sep-27 19:31N 49°11' W 122°55'0 0.0
2014-Sep-27 18:28N 49°11' W 122°55'0 0.0
2014-Sep-27 17:31N 49°11' W 122°55'0 0.0
2014-Sep-27 16:31N 49°11' W 122°55'0 0.0
2014-Sep-27 15:31N 49°11' W 122°55'0 0.0
2014-Sep-27 14:31N 49°11' W 122°55'0 0.0
2014-Sep-27 13:31N 49°11' W 122°55'0 0.0
2014-Sep-27 12:31N 49°11' W 122°55'0 0.0
2014-Sep-27 11:31N 49°11' W 122°55'0 0.0
2014-Sep-27 10:31N 49°11' W 122°55'0 0.0
2014-Sep-27 09:28N 49°11' W 122°55'0 0.0
2014-Sep-27 08:31N 49°11' W 122°55'0 0.0
2014-Sep-27 07:31N 49°11' W 122°55'0 0.0
2014-Sep-26 23:33N 49°11' W 122°55'7 6.8
2014-Sep-26 22:33N 49°08' W 123°04'1111.2
2014-Sep-26 21:34N 49°05' W 123°21'1514.8
2014-Sep-26 20:34N 48°55' W 123°05'1914.3
2014-Sep-26 19:14N 48°37' W 123°13'1218.0
2014-Sep-26 18:34N 48°25' W 123°11'1312.6
2014-Sep-26 17:33N 48°17' W 123°26'4314.5
2014-Sep-26 14:34N 47°56' W 122°29'2019.5
2014-Sep-26 13:34N 47°36' W 122°27'1616.2
2014-Sep-26 12:34N 47°20' W 122°26'3 0.1
2014-Sep-25 11:31N 47°17' W 122°26'7 7.2
2014-Sep-25 10:34N 47°23' W 122°22'1716.9
2014-Sep-25 09:33N 47°40' W 122°28'1717.4
2014-Sep-25 08:33N 47°57' W 122°33'3515.5
2014-Sep-25 06:19N 48°11' W 123°20'40 6.5
2014-Sep-25 00:13N 48°20' W 124°19'3 3.8
2014-Sep-24 23:23N 48°20' W 124°23'1 1.0
2014-Sep-24 22:33N 48°21' W 124°24'7 7.1
2014-Sep-24 21:33N 48°25' W 124°33'1010.0
2014-Sep-24 20:33N 48°29' W 124°47'  
2014-Sep-22 06:34N 38°21' W 123°48'1413.7
2014-Sep-22 05:34N 38°11' W 123°36'1212.0
2014-Sep-22 04:33N 38°09' W 123°21'1212.5
2014-Sep-22 03:33N 37°60' W 123°10'1212.4
2014-Sep-22 02:33N 37°53' W 122°57'1212.4
2014-Sep-22 01:34N 37°47' W 122°43'1212.4
2014-Sep-22 00:33N 37°50' W 122°28'7 7.0
2014-Sep-21 23:33N 37°49' W 122°19'0 0.1
2014-Sep-21 22:33N 37°49' W 122°19'0 0.0
2014-Sep-21 21:33N 37°49' W 122°19'0 0.0
2014-Sep-21 20:33N 37°49' W 122°19'0 0.0
2014-Sep-21 19:33N 37°49' W 122°19'0 0.0
2014-Sep-21 18:33N 37°49' W 122°19'0 0.0
2014-Sep-21 17:33N 37°49' W 122°19'0 0.0
2014-Sep-21 16:30N 37°49' W 122°19'  
Track history (hours):
 
Tides and Currents Weather Stations Pressure Air Temp Water Temp Dewpoint Dewpoint Depression Visibility Wind Speed Wind Dir Waves Ship Positions

Seaspan Chiwan

Last reported at 2014-Oct-01 15:33 UTC. Time now 2014-Oct-01 16:23 UTC.
Position N 38°32' W 124°03'.

Length 260 m; draft 10 m.

Type: Cargo ship. MMSI: 477014500.

Date/timePositionNaut miles runAvg speedWind from/ knotsBaromVisibWave heightAir tempDewpointWater temp
2014-Oct-01 15:33N 38°32' W 124°03'1414.1
2014-Oct-01 14:33N 38°42' W 124°16'1413.5
2014-Oct-01 13:33N 38°55' W 124°24'1414.1
2014-Oct-01 12:33N 39°08' W 124°30'1414.3
2014-Oct-01 11:33N 39°21' W 124°36'1414.4
2014-Oct-01 10:33N 39°35' W 124°42'38816.1
2014-Sep-30 10:25N 46°03' W 124°13'1213.7
2014-Sep-30 09:33N 46°14' W 124°07'1211.6
2014-Sep-30 08:33N 46°12' W 123°51'1010.5
2014-Sep-30 07:33N 46°15' W 123°37'51 9.9
2014-Sep-30 02:23N 45°39' W 122°45'0 0.2
2014-Sep-30 00:31N 45°38' W 122°45'0 0.0
2014-Sep-29 14:31N 45°38' W 122°45'0 0.0
2014-Sep-29 13:31N 45°38' W 122°45'2 1.6
2014-Sep-29 12:33N 45°40' W 122°46'46 9.2
2014-Sep-29 07:34N 46°16' W 123°28'10 9.8
2014-Sep-29 06:33N 46°15' W 123°42'9 9.6
2014-Sep-29 05:34N 46°11' W 123°55'1111.3
2014-Sep-29 04:33N 46°13' W 124°11'1110.9
2014-Sep-29 03:33N 46°20' W 124°23'10119.5
2014-Sep-28 22:21N 47°55' W 125°16'1719.5
2014-Sep-28 21:30N 48°11' W 125°12'1919.7
2014-Sep-28 20:33N 48°29' W 125°04'1919.0
2014-Sep-28 19:34N 48°28' W 124°35'2020.3
2014-Sep-28 18:34N 48°21' W 124°07'2120.3
2014-Sep-28 17:33N 48°15' W 123°37'1515.0
2014-Sep-28 16:33N 48°23' W 123°18'1616.3
2014-Sep-28 15:33N 48°39' W 123°15'1414.0
2014-Sep-28 14:33N 48°51' W 123°05'1717.5
2014-Sep-28 13:33N 49°05' W 123°20'1010.4
2014-Sep-28 12:33N 49°07' W 123°05'7 7.2
2014-Sep-28 11:31N 49°11' W 122°55'0 0.0
2014-Sep-28 10:31N 49°11' W 122°55'0 0.0
2014-Sep-28 09:31N 49°11' W 122°55'0 0.0
2014-Sep-28 08:31N 49°11' W 122°55'0 0.0
2014-Sep-28 07:31N 49°11' W 122°55'0 0.0
2014-Sep-28 06:31N 49°11' W 122°55'0 0.0
2014-Sep-28 05:31N 49°11' W 122°55'0 0.0
2014-Sep-28 04:31N 49°11' W 122°55'0 0.0
2014-Sep-28 03:31N 49°11' W 122°55'0 0.0
2014-Sep-28 02:31N 49°11' W 122°55'0 0.0
2014-Sep-28 01:31N 49°11' W 122°55'0 0.0
2014-Sep-28 00:28N 49°11' W 122°55'0 0.0
2014-Sep-27 23:31N 49°11' W 122°55'0 0.0
2014-Sep-27 22:28N 49°11' W 122°55'0 0.0
2014-Sep-27 21:31N 49°11' W 122°55'0 0.0
2014-Sep-27 20:31N 49°11' W 122°55'0 0.0
2014-Sep-27 19:31N 49°11' W 122°55'0 0.0
2014-Sep-27 18:28N 49°11' W 122°55'0 0.0
2014-Sep-27 17:31N 49°11' W 122°55'0 0.0
2014-Sep-27 16:31N 49°11' W 122°55'0 0.0
2014-Sep-27 15:31N 49°11' W 122°55'0 0.0
2014-Sep-27 14:31N 49°11' W 122°55'0 0.0
2014-Sep-27 13:31N 49°11' W 122°55'0 0.0
2014-Sep-27 12:31N 49°11' W 122°55'0 0.0
2014-Sep-27 11:31N 49°11' W 122°55'0 0.0
2014-Sep-27 10:31N 49°11' W 122°55'0 0.0
2014-Sep-27 09:28N 49°11' W 122°55'0 0.0
2014-Sep-27 08:31N 49°11' W 122°55'0 0.0
2014-Sep-27 07:31N 49°11' W 122°55'0 0.0
2014-Sep-26 23:33N 49°11' W 122°55'7 6.8
2014-Sep-26 22:33N 49°08' W 123°04'1111.2
2014-Sep-26 21:34N 49°05' W 123°21'1514.8
2014-Sep-26 20:34N 48°55' W 123°05'1914.3
2014-Sep-26 19:14N 48°37' W 123°13'1218.0
2014-Sep-26 18:34N 48°25' W 123°11'1312.6
2014-Sep-26 17:33N 48°17' W 123°26'4314.5
2014-Sep-26 14:34N 47°56' W 122°29'2019.5
2014-Sep-26 13:34N 47°36' W 122°27'1616.2
2014-Sep-26 12:34N 47°20' W 122°26'3 0.1
2014-Sep-25 11:31N 47°17' W 122°26'7 7.2
2014-Sep-25 10:34N 47°23' W 122°22'1716.9
2014-Sep-25 09:33N 47°40' W 122°28'1717.4
2014-Sep-25 08:33N 47°57' W 122°33'3515.5
2014-Sep-25 06:19N 48°11' W 123°20'40 6.5
2014-Sep-25 00:13N 48°20' W 124°19'3 3.8
2014-Sep-24 23:23N 48°20' W 124°23'1 1.0
2014-Sep-24 22:33N 48°21' W 124°24'7 7.1
2014-Sep-24 21:33N 48°25' W 124°33'1010.0
2014-Sep-24 20:33N 48°29' W 124°47'  
2014-Sep-22 06:34N 38°21' W 123°48'1413.7
2014-Sep-22 05:34N 38°11' W 123°36'1212.0
2014-Sep-22 04:33N 38°09' W 123°21'1212.5
2014-Sep-22 03:33N 37°60' W 123°10'1212.4
2014-Sep-22 02:33N 37°53' W 122°57'1212.4
2014-Sep-22 01:34N 37°47' W 122°43'1212.4
2014-Sep-22 00:33N 37°50' W 122°28'7 7.0
2014-Sep-21 23:33N 37°49' W 122°19'0 0.1
2014-Sep-21 22:33N 37°49' W 122°19'0 0.0
2014-Sep-21 21:33N 37°49' W 122°19'0 0.0
2014-Sep-21 20:33N 37°49' W 122°19'0 0.0
2014-Sep-21 19:33N 37°49' W 122°19'0 0.0
2014-Sep-21 18:33N 37°49' W 122°19'0 0.0
2014-Sep-21 17:33N 37°49' W 122°19'0 0.0
2014-Sep-21 16:30N 37°49' W 122°19'  

Dump ship's entire track history